createdAt,value
2019-05-06T00:03:45.989Z,6.57
2019-05-06T00:09:53.854Z,8.43
2019-05-06T00:15:59.680Z,10.97
2019-05-06T00:22:06.536Z,7.17
2019-05-06T00:28:30.148Z,10.77
2019-05-06T00:34:35.977Z,8.17
2019-05-06T00:40:43.702Z,8.80
2019-05-06T00:46:49.656Z,9.67
2019-05-06T00:52:56.657Z,8.37
2019-05-06T00:59:03.745Z,9.10
2019-05-06T01:05:09.943Z,10.90
2019-05-06T01:11:16.229Z,8.57
2019-05-06T01:17:23.862Z,7.83
2019-05-06T01:23:34.237Z,8.07
2019-05-06T01:29:40.213Z,10.23
2019-05-06T01:35:46.009Z,8.83
2019-05-06T01:41:57.704Z,10.70
2019-05-06T01:48:04.043Z,12.40
2019-05-06T01:54:10.196Z,10.37
2019-05-06T02:00:17.346Z,9.07
2019-05-06T02:06:24.924Z,10.83
2019-05-06T02:12:30.689Z,10.33
2019-05-06T02:18:36.750Z,11.67
2019-05-06T02:24:49.366Z,8.33
2019-05-06T02:31:14.815Z,9.17
2019-05-06T02:37:26.878Z,10.17
2019-05-06T02:43:36.281Z,10.90
2019-05-06T02:49:46.988Z,12.07
2019-05-06T02:55:53.220Z,11.53
2019-05-06T03:01:59.067Z,10.87
2019-05-06T03:08:05.030Z,12.87
2019-05-06T03:14:13.808Z,9.27
2019-05-06T03:20:59.298Z,12.77
2019-05-06T03:27:05.140Z,10.37
2019-05-06T03:39:18.376Z,13.00
2019-05-06T03:45:34.707Z,10.27
2019-05-06T03:51:42.786Z,9.70
2019-05-06T03:57:53.678Z,11.80
2019-05-06T04:03:57.852Z,14.53
2019-05-06T04:10:04.248Z,12.90
2019-05-06T04:16:23.086Z,13.47
2019-05-06T04:22:57.699Z,32.03
2019-05-06T04:29:04.125Z,19.43
2019-05-06T04:35:13.238Z,12.10
2019-05-06T04:41:17.878Z,10.37
2019-05-06T04:47:24.276Z,9.27
2019-05-06T04:53:33.772Z,8.70
2019-05-06T04:59:38.965Z,11.13
2019-05-06T05:05:45.226Z,10.93
2019-05-06T05:12:02.723Z,13.63
2019-05-06T05:18:13.026Z,13.07
2019-05-06T05:24:18.871Z,15.70
2019-05-06T05:30:24.638Z,18.30
2019-05-06T05:36:32.612Z,18.33
2019-05-06T05:42:57.590Z,14.33
2019-05-06T05:49:37.559Z,24.30
2019-05-06T05:55:43.671Z,17.67
2019-05-06T06:01:49.725Z,16.03
2019-05-06T06:07:57.451Z,14.80
2019-05-06T06:14:07.346Z,20.07
2019-05-06T06:20:32.743Z,15.77
2019-05-06T06:26:38.836Z,16.60
2019-05-06T06:32:45.219Z,16.97
2019-05-06T06:39:09.941Z,15.60
2019-05-06T06:45:15.762Z,16.03
2019-05-06T06:51:23.457Z,15.47
2019-05-06T06:57:46.579Z,12.73
2019-05-06T07:04:02.629Z,17.83
2019-05-06T07:10:12.102Z,14.23
2019-05-06T07:16:20.714Z,14.53
2019-05-06T07:22:32.480Z,15.63
2019-05-06T07:28:38.608Z,13.07
2019-05-06T07:34:44.628Z,15.33
2019-05-06T07:40:54.331Z,13.33
2019-05-06T07:47:18.943Z,17.03
2019-05-06T07:53:24.834Z,14.03
2019-05-06T07:59:33.267Z,11.40
2019-05-06T08:05:51.567Z,14.17
2019-05-06T08:11:46.172Z,11.33
2019-05-06T08:17:52.565Z,13.33
2019-05-06T08:23:58.429Z,10.67
2019-05-06T08:30:04.541Z,12.47
2019-05-06T08:36:14.912Z,11.23
2019-05-06T08:42:22.437Z,11.53
2019-05-06T08:48:29.052Z,11.87
2019-05-06T08:54:43.336Z,12.47
2019-05-06T09:01:03.328Z,11.93
2019-05-06T09:07:09.071Z,9.50
2019-05-06T09:13:15.318Z,9.63
2019-05-06T09:19:23.121Z,9.90
2019-05-06T09:25:28.701Z,13.53
2019-05-06T09:31:42.688Z,8.27
2019-05-06T09:37:48.364Z,7.13
2019-05-06T09:43:54.134Z,8.77
2019-05-06T09:50:02.650Z,8.73
2019-05-06T09:56:33.492Z,10.50
2019-05-06T10:02:39.451Z,10.60
2019-05-06T10:08:45.267Z,10.23
2019-05-06T10:14:53.167Z,11.03
2019-05-06T10:20:58.727Z,12.97
2019-05-06T10:27:04.440Z,16.13
2019-05-06T10:33:14.812Z,15.70
2019-05-06T10:39:24.022Z,13.80
2019-05-06T10:45:32.603Z,14.33
2019-05-06T10:51:47.763Z,14.97
2019-05-06T10:57:53.506Z,15.00
2019-05-06T11:03:59.353Z,15.17
2019-05-06T11:10:05.468Z,17.67
2019-05-06T11:16:12.964Z,13.20
2019-05-06T11:22:21.393Z,16.07
2019-05-06T11:28:44.046Z,16.23
2019-05-06T11:34:55.973Z,12.90
2019-05-06T11:41:01.734Z,10.87
2019-05-06T11:47:07.830Z,10.03
2019-05-06T11:53:13.742Z,11.37
2019-05-06T11:59:19.569Z,8.63
2019-05-06T12:05:29.105Z,8.57
2019-05-06T12:11:35.120Z,6.60
2019-05-06T12:17:42.204Z,8.13
2019-05-06T12:23:48.159Z,10.07
2019-05-06T12:29:54.131Z,8.03
2019-05-06T12:36:02.540Z,9.43
2019-05-06T12:42:19.408Z,8.53
2019-05-06T12:48:27.935Z,8.07
2019-05-06T12:54:33.791Z,9.63
2019-05-06T13:00:39.707Z,9.13
2019-05-06T13:06:46.348Z,10.60
2019-05-06T13:12:57.656Z,9.37
2019-05-06T13:19:03.827Z,9.33
2019-05-06T13:25:13.357Z,10.53
2019-05-06T13:31:21.674Z,9.83
2019-05-06T13:37:25.416Z,11.50
2019-05-06T13:43:39.021Z,10.97
2019-05-06T13:49:53.108Z,12.27
2019-05-06T13:56:01.907Z,11.37
2019-05-06T14:02:16.404Z,14.20
2019-05-06T14:08:22.317Z,12.57
2019-05-06T14:14:28.159Z,14.67
2019-05-06T14:20:34.100Z,11.23
2019-05-06T14:26:45.709Z,10.27
2019-05-06T14:32:52.749Z,10.50
2019-05-06T14:38:58.767Z,12.47
2019-05-06T14:45:05.323Z,11.17
2019-05-06T14:51:13.051Z,16.17
2019-05-06T14:57:19.899Z,11.20
2019-05-06T15:03:25.707Z,10.80
2019-05-06T15:09:33.010Z,10.67
2019-05-06T15:15:38.954Z,12.53
2019-05-06T15:21:44.744Z,13.20
2019-05-06T15:27:52.955Z,13.23
2019-05-06T15:34:02.439Z,13.77
2019-05-06T15:40:09.350Z,14.97
2019-05-06T15:46:15.215Z,15.17
2019-05-06T15:52:23.443Z,14.03
2019-05-06T15:58:29.085Z,16.53
2019-05-06T16:04:34.965Z,18.07
2019-05-06T16:10:51.887Z,15.97
2019-05-06T16:16:49.090Z,13.90
2019-05-06T16:23:03.450Z,11.13
2019-05-06T16:29:09.347Z,9.53
2019-05-06T16:35:15.390Z,10.53
2019-05-06T16:41:22.477Z,9.50
2019-05-06T16:47:38.587Z,8.33
2019-05-06T16:53:45.287Z,8.47
2019-05-06T16:59:52.213Z,7.73
2019-05-06T17:06:26.371Z,7.10
2019-05-06T17:12:32.417Z,8.83
2019-05-06T17:18:38.259Z,8.03
2019-05-06T17:24:44.130Z,8.80
2019-05-06T17:31:06.113Z,10.38
2019-05-06T17:37:29.450Z,8.33
2019-05-06T17:43:40.553Z,6.87
2019-05-06T17:49:42.930Z,8.40
2019-05-06T17:55:49.074Z,9.00
2019-05-06T18:01:57.179Z,9.50
2019-05-06T18:08:03.719Z,9.20
2019-05-06T18:14:12.317Z,9.60
2019-05-06T18:20:17.964Z,10.10
2019-05-06T18:26:24.176Z,11.13
2019-05-06T18:32:29.988Z,10.93
2019-05-06T18:38:35.865Z,10.53
2019-05-06T18:44:42.317Z,12.27
2019-05-06T18:50:48.202Z,10.57
2019-05-06T18:56:54.180Z,17.93
2019-05-06T19:03:02.508Z,12.77
2019-05-06T19:09:22.827Z,12.80
2019-05-06T19:15:32.413Z,14.17
2019-05-06T19:21:38.340Z,16.00
2019-05-06T19:27:44.236Z,15.47
2019-05-06T19:33:52.454Z,14.23
2019-05-06T19:39:59.735Z,16.10
2019-05-06T19:46:05.641Z,17.07
2019-05-06T19:52:11.666Z,17.97
2019-05-06T19:58:17.616Z,16.20
2019-05-06T20:04:24.204Z,15.67
2019-05-06T20:10:48.310Z,17.73
2019-05-06T20:16:54.263Z,15.00
2019-05-06T20:23:02.536Z,14.57
2019-05-06T20:29:07.938Z,13.80
2019-05-06T20:35:14.738Z,13.13
2019-05-06T20:41:22.147Z,12.20
2019-05-06T20:47:28.166Z,12.93
2019-05-06T20:53:34.056Z,11.47
2019-05-06T20:59:41.971Z,10.97
2019-05-06T21:05:48.586Z,10.67
2019-05-06T21:11:55.263Z,10.40
2019-05-06T21:18:04.105Z,9.90
2019-05-06T21:24:09.590Z,8.50
2019-05-06T21:30:16.395Z,8.40
2019-05-06T21:36:23.139Z,7.33
2019-05-06T21:42:29.684Z,8.50
2019-05-06T21:48:35.781Z,10.70
2019-05-06T21:54:43.373Z,13.00
2019-05-06T22:07:12.015Z,15.87
2019-05-06T22:13:17.987Z,12.43
2019-05-06T22:19:24.179Z,10.10
2019-05-06T22:25:32.543Z,10.57
2019-05-06T22:31:38.120Z,9.67
2019-05-06T22:37:45.075Z,14.60
2019-05-06T22:43:53.198Z,9.33
2019-05-06T22:49:59.557Z,9.93
2019-05-06T22:56:09.206Z,10.17
2019-05-06T23:02:32.623Z,11.40
2019-05-06T23:08:38.981Z,12.20
2019-05-06T23:14:45.116Z,12.07
2019-05-06T23:20:52.735Z,12.73
2019-05-06T23:26:58.915Z,13.70
2019-05-06T23:33:05.431Z,12.97
2019-05-06T23:40:06.890Z,13.60
2019-05-06T23:47:06.915Z,15.10
2019-05-06T23:54:06.667Z,14.80
